createdAt,value
2023-05-19T00:04:31.762Z,55.15
2023-05-19T00:09:34.977Z,55.66
2023-05-19T00:14:38.017Z,55.31
2023-05-19T00:19:42.051Z,54.90
2023-05-19T00:24:44.688Z,55.24
2023-05-19T00:29:47.281Z,55.39
2023-05-19T00:34:51.289Z,55.33
2023-05-19T00:39:53.967Z,54.88
2023-05-19T00:44:56.730Z,55.27
2023-05-19T00:50:00.820Z,55.13
2023-05-19T00:55:03.517Z,55.74
2023-05-19T01:00:08.043Z,56.05
2023-05-19T01:05:12.277Z,56.11
2023-05-19T01:10:15.117Z,56.15
2023-05-19T01:15:17.898Z,56.33
2023-05-19T01:20:25.902Z,56.26
2023-05-19T01:25:55.766Z,56.18
2023-05-19T01:31:01.232Z,56.09
2023-05-19T01:36:05.038Z,56.09
2023-05-19T01:41:07.980Z,56.98
2023-05-19T01:46:12.771Z,56.93
2023-05-19T01:51:15.497Z,56.78
2023-05-19T01:56:22.927Z,57.04
2023-05-19T02:01:34.007Z,57.00
2023-05-19T02:06:42.528Z,56.58
2023-05-19T02:11:53.799Z,55.99
2023-05-19T02:16:59.228Z,56.28
2023-05-19T02:22:01.970Z,53.66
2023-05-19T02:27:04.896Z,55.61
2023-05-19T02:32:09.415Z,54.66
2023-05-19T02:37:12.417Z,54.80
2023-05-19T02:42:17.683Z,55.83
2023-05-19T02:47:21.884Z,55.69
2023-05-19T02:52:24.552Z,55.83
2023-05-19T02:57:27.612Z,56.38
2023-05-19T03:02:33.296Z,56.79
2023-05-19T03:07:36.137Z,56.49
2023-05-19T03:12:38.921Z,56.74
2023-05-19T03:17:43.222Z,56.53
2023-05-19T03:22:45.994Z,56.29
2023-05-19T03:27:48.837Z,56.57
2023-05-19T03:32:53.192Z,56.55
2023-05-19T03:37:55.993Z,56.80
2023-05-19T03:43:00.934Z,55.88
2023-05-19T03:48:05.950Z,56.34
2023-05-19T03:53:30.234Z,55.41
2023-05-19T03:58:33.028Z,55.67
2023-05-19T04:03:37.188Z,55.79
2023-05-19T04:08:40.488Z,55.74
2023-05-19T04:13:44.500Z,55.29
2023-05-19T04:18:49.687Z,55.88
2023-05-19T04:23:55.747Z,56.42
2023-05-19T04:28:58.872Z,55.63
2023-05-19T04:34:02.971Z,55.77
2023-05-19T04:39:07.911Z,54.95
2023-05-19T04:44:10.972Z,52.82
2023-05-19T04:49:15.330Z,52.68
2023-05-19T04:54:17.989Z,52.73
2023-05-19T04:59:20.703Z,52.17
2023-05-19T05:04:25.888Z,51.08
2023-05-19T05:09:28.570Z,50.41
2023-05-19T05:14:34.384Z,51.08
2023-05-19T05:19:39.265Z,51.50
2023-05-19T05:24:43.150Z,51.55
2023-05-19T05:29:45.997Z,51.33
2023-05-19T05:34:50.861Z,51.69
2023-05-19T05:39:53.661Z,51.40
2023-05-19T05:44:56.388Z,51.38
2023-05-19T05:50:01.220Z,51.46
2023-05-19T05:55:06.130Z,51.48
2023-05-19T06:00:15.411Z,51.17
2023-05-19T06:05:19.541Z,51.12
2023-05-19T06:10:24.086Z,51.36
2023-05-19T06:15:27.328Z,51.14
2023-05-19T06:20:39.015Z,51.11
2023-05-19T06:25:42.130Z,50.88
2023-05-19T06:30:45.524Z,51.04
2023-05-19T06:36:24.664Z,50.78
2023-05-19T06:41:30.187Z,50.85
2023-05-19T06:46:33.096Z,50.87
2023-05-19T06:51:37.343Z,50.50
2023-05-19T06:56:40.292Z,50.73
2023-05-19T07:01:43.206Z,50.61
2023-05-19T07:06:47.740Z,50.56
2023-05-19T07:11:50.816Z,50.60
2023-05-19T07:16:53.585Z,50.25
2023-05-19T07:21:59.258Z,50.05
2023-05-19T07:27:01.975Z,50.16
2023-05-19T07:32:05.176Z,50.11
2023-05-19T07:37:09.179Z,50.47
2023-05-19T07:42:11.805Z,50.24
2023-05-19T07:47:14.509Z,50.47
2023-05-19T07:52:18.747Z,50.42
2023-05-19T07:57:21.382Z,50.28
2023-05-19T08:02:24.120Z,50.29
2023-05-19T08:07:28.139Z,50.49
2023-05-19T08:12:30.804Z,50.66
2023-05-19T08:17:33.469Z,50.69
2023-05-19T08:22:37.673Z,50.88
2023-05-19T08:27:40.529Z,50.92
2023-05-19T08:32:43.366Z,51.05
2023-05-19T08:37:47.566Z,50.93
2023-05-19T08:42:50.545Z,51.08
2023-05-19T08:47:53.473Z,51.05
2023-05-19T08:53:03.022Z,50.88
2023-05-19T08:58:05.940Z,51.29
2023-05-19T09:03:18.046Z,51.55
2023-05-19T09:08:27.630Z,51.11
2023-05-19T09:13:30.365Z,51.56
2023-05-19T09:18:33.096Z,51.56
2023-05-19T09:23:37.094Z,52.06
2023-05-19T09:28:41.298Z,51.83
2023-05-19T09:33:45.998Z,51.87
2023-05-19T09:38:50.290Z,51.78
2023-05-19T09:43:55.792Z,51.74
2023-05-19T09:48:58.578Z,51.58
2023-05-19T09:54:02.633Z,51.71
2023-05-19T09:59:05.333Z,51.84
2023-05-19T10:04:08.129Z,51.61
2023-05-19T10:09:12.305Z,51.79
2023-05-19T10:14:15.197Z,51.96
2023-05-19T10:19:17.876Z,51.74
2023-05-19T10:24:22.301Z,51.96
2023-05-19T10:29:29.372Z,52.00
2023-05-19T10:35:01.961Z,52.89
2023-05-19T10:40:12.418Z,53.77
2023-05-19T10:45:18.706Z,54.20
2023-05-19T10:50:21.764Z,54.22
2023-05-19T10:55:48.085Z,54.30
2023-05-19T11:01:01.377Z,54.40
2023-05-19T11:06:18.505Z,54.40
2023-05-19T11:11:23.403Z,54.18
2023-05-19T11:16:30.360Z,54.23
2023-05-19T11:21:43.532Z,53.99
2023-05-19T11:26:47.550Z,53.85
2023-05-19T11:31:50.486Z,53.94
2023-05-19T11:36:53.847Z,53.91
2023-05-19T11:41:57.843Z,54.01
2023-05-19T11:47:01.129Z,53.76
2023-05-19T11:52:04.752Z,53.78
2023-05-19T11:57:09.472Z,53.67
2023-05-19T12:02:18.312Z,53.44
2023-05-19T12:07:24.110Z,53.44
2023-05-19T12:12:31.077Z,53.21
2023-05-19T12:17:33.787Z,53.18
2023-05-19T12:22:36.509Z,53.22
2023-05-19T12:27:40.541Z,53.16
2023-05-19T12:32:43.966Z,53.25
2023-05-19T12:37:49.047Z,53.06
2023-05-19T12:42:58.083Z,52.82
2023-05-19T12:48:04.347Z,52.92
2023-05-19T12:53:09.948Z,52.97
2023-05-19T12:58:14.228Z,53.00
2023-05-19T13:03:18.020Z,52.73
2023-05-19T13:08:23.850Z,52.99
2023-05-19T13:13:27.898Z,52.88
2023-05-19T13:18:32.429Z,52.74
2023-05-19T13:23:35.713Z,52.97
2023-05-19T13:28:39.757Z,53.00
2023-05-19T13:33:42.408Z,52.97
2023-05-19T13:38:45.139Z,52.74
2023-05-19T13:43:49.131Z,52.76
2023-05-19T13:48:51.780Z,52.97
2023-05-19T13:53:54.453Z,53.03
2023-05-19T13:58:58.453Z,52.87
2023-05-19T14:04:01.494Z,52.72
2023-05-19T14:09:04.346Z,52.92
2023-05-19T14:14:09.418Z,52.92
2023-05-19T14:19:14.488Z,52.90
2023-05-19T14:24:17.575Z,52.78
2023-05-19T14:29:21.537Z,52.95
2023-05-19T14:34:24.183Z,52.98
2023-05-19T14:39:26.932Z,52.69
2023-05-19T14:44:33.894Z,52.63
2023-05-19T14:49:36.532Z,52.69
2023-05-19T14:54:39.338Z,52.75
2023-05-19T14:59:43.293Z,52.75
2023-05-19T15:04:46.178Z,52.66
2023-05-19T15:09:48.978Z,52.66
2023-05-19T15:14:53.080Z,52.66
2023-05-19T15:19:55.719Z,52.61
2023-05-19T15:24:58.379Z,52.65
2023-05-19T15:30:02.376Z,52.64
2023-05-19T15:35:05.518Z,52.61
2023-05-19T15:40:09.352Z,52.66
2023-05-19T15:45:13.358Z,52.69
2023-05-19T15:50:16.869Z,52.69
2023-05-19T15:55:19.891Z,52.91
2023-05-19T16:00:24.291Z,52.77
2023-05-19T16:05:26.974Z,52.75
2023-05-19T16:10:29.639Z,52.71
2023-05-19T16:15:33.627Z,52.94
2023-05-19T16:20:36.337Z,53.00
2023-05-19T16:25:38.979Z,52.85
2023-05-19T16:30:43.534Z,52.87
2023-05-19T16:35:46.273Z,53.02
2023-05-19T16:40:48.949Z,52.92
2023-05-19T16:45:53.016Z,52.79
2023-05-19T16:50:55.762Z,52.93
2023-05-19T16:55:59.187Z,52.41
2023-05-19T17:01:03.889Z,52.32
2023-05-19T17:06:06.639Z,52.46
2023-05-19T17:11:09.432Z,52.30
2023-05-19T17:16:13.509Z,52.25
2023-05-19T17:21:17.432Z,51.98
2023-05-19T17:26:20.144Z,52.20
2023-05-19T17:31:24.156Z,52.16
2023-05-19T17:36:27.082Z,52.06
2023-05-19T17:41:29.781Z,52.08
2023-05-19T17:46:34.600Z,51.96
2023-05-19T17:51:38.002Z,51.82
2023-05-19T17:56:42.519Z,51.79
2023-05-19T18:01:46.907Z,51.77
2023-05-19T18:06:52.431Z,51.63
2023-05-19T18:11:55.358Z,51.69
2023-05-19T18:16:59.436Z,51.50
2023-05-19T18:22:02.165Z,51.13
2023-05-19T18:27:05.110Z,50.81
2023-05-19T18:32:09.431Z,50.77
2023-05-19T18:37:12.140Z,50.74
2023-05-19T18:42:14.825Z,50.77
2023-05-19T18:47:19.663Z,50.63
2023-05-19T18:52:22.410Z,50.37
2023-05-19T18:57:25.107Z,50.87
2023-05-19T19:02:29.144Z,50.50
2023-05-19T19:07:31.832Z,50.01
2023-05-19T19:12:34.726Z,50.24
2023-05-19T19:17:39.800Z,50.46
2023-05-19T19:22:42.607Z,49.50
2023-05-19T19:27:45.399Z,50.97
2023-05-19T19:32:49.506Z,50.81
2023-05-19T19:37:52.596Z,51.25
2023-05-19T19:42:55.236Z,51.66
2023-05-19T19:47:59.357Z,50.75
2023-05-19T19:53:02.126Z,51.56
2023-05-19T19:58:04.774Z,51.95
2023-05-19T20:03:08.921Z,51.94
2023-05-19T20:13:14.520Z,52.49
2023-05-19T20:18:18.595Z,52.32
2023-05-19T20:23:21.275Z,52.45
2023-05-19T20:28:24.122Z,52.64
2023-05-19T20:33:28.380Z,52.47
2023-05-19T20:38:31.074Z,52.78
2023-05-19T20:43:33.886Z,52.88
2023-05-19T20:48:37.940Z,52.47
2023-05-19T20:53:40.776Z,53.02
2023-05-19T20:58:43.439Z,52.96
2023-05-19T21:03:47.463Z,52.91
2023-05-19T21:08:50.146Z,53.17
2023-05-19T21:13:54.147Z,53.16
2023-05-19T21:18:58.303Z,52.45
2023-05-19T21:24:01.352Z,53.19
2023-05-19T21:29:03.981Z,53.18
2023-05-19T21:34:08.171Z,52.46
2023-05-19T21:39:10.847Z,53.00
2023-05-19T21:44:13.467Z,52.97
2023-05-19T21:49:17.541Z,53.04
2023-05-19T21:54:20.201Z,52.95
2023-05-19T21:59:24.621Z,53.08
2023-05-19T22:04:31.329Z,52.91
2023-05-19T22:09:34.024Z,53.54
2023-05-19T22:14:36.814Z,53.34
2023-05-19T22:19:40.877Z,53.73
2023-05-19T22:24:43.518Z,53.72
2023-05-19T22:29:46.211Z,53.57
2023-05-19T22:34:50.410Z,53.67
2023-05-19T22:39:53.049Z,53.59
2023-05-19T22:44:55.716Z,53.82
2023-05-19T22:50:00.056Z,53.78
2023-05-19T22:55:02.791Z,53.86
2023-05-19T23:00:06.606Z,53.95
2023-05-19T23:05:11.258Z,54.11
2023-05-19T23:10:14.185Z,53.70
2023-05-19T23:15:16.907Z,54.00
2023-05-19T23:20:21.184Z,54.39
2023-05-19T23:25:23.854Z,54.15
2023-05-19T23:30:26.531Z,54.35
2023-05-19T23:35:30.612Z,54.73
2023-05-19T23:40:33.291Z,54.33
2023-05-19T23:45:35.924Z,54.63
2023-05-19T23:50:39.914Z,54.63
2023-05-19T23:55:43.271Z,54.92
